Bao An Cheng 69 — BVBD5 — position and weather

sailwx.info

Track history (hours):
 
Tides and Currents Weather Stations Pressure Air Temp Water Temp Dewpoint Dewpoint Depression Visibility Wind Speed Wind Dir Waves Ship Positions

Bao An Cheng 69

Last reported at 2016-May-06 03:31 UTC. Time now 2016-May-07 00:28 UTC.
Position N 25°23' E 119°22'.

Length 121 m; draft 5.8 m.

Type: Cargo ship. MMSI: 412703090.

Date/timePositionNaut miles runAvg speedWind from/ knotsBaromVisibWave heightAir tempDewpointWater temp
2016-May-06 03:31N 25°23' E 119°22'8 7.6
2016-May-06 02:29N 25°16' E 119°26'2510.3
2016-May-06 00:04N 24°57' E 119°08'712.2
2016-May-05 23:30N 24°52' E 119°02'1111.4
2016-May-05 22:33N 24°48' E 118°51'7 7.4
2016-May-05 21:33N 24°49' E 118°43'0 0.0
2016-May-05 19:31N 24°49' E 118°43'0 0.0
2016-May-05 18:13N 24°49' E 118°43'0 0.0
2016-May-05 17:10N 24°49' E 118°43'0 0.0
2016-May-05 16:28N 24°49' E 118°43'0 0.0
2016-May-05 12:13N 24°49' E 118°43'4 5.9
2016-May-05 11:30N 24°47' E 118°47'0 0.1
2016-May-05 08:10N 24°47' E 118°48'0 0.1
2016-May-05 07:22N 24°47' E 118°48'5 6.6
2016-May-05 06:33N 24°42' E 118°47'2210.9
2016-May-05 04:33N 24°25' E 118°32'1110.2
2016-May-05 03:30N 24°20' E 118°21'910.0
2016-May-05 02:33N 24°21' E 118°11'8 8.5
2016-May-05 01:33N 24°26' E 118°03'3 3.1
2016-May-05 00:31N 24°27' E 118°00'0 0.0
2016-May-04 23:28N 24°27' E 118°00'0 0.0
2016-May-04 22:28N 24°27' E 118°00'0 0.0
2016-May-04 21:31N 24°27' E 118°00'0 0.0
2016-May-04 20:33N 24°27' E 118°00'0 0.0
2016-May-04 19:33N 24°27' E 118°00'0 0.0
2016-May-04 18:33N 24°27' E 118°00'0 0.0
2016-May-04 17:30N 24°27' E 118°00'0 0.0
2016-May-04 16:30N 24°27' E 118°00'0 0.0
2016-May-04 15:33N 24°27' E 118°00'0 0.0
2016-May-04 14:33N 24°27' E 118°00'0 0.0
2016-May-04 13:30N 24°27' E 118°00'0 0.0
2016-May-04 11:21N 24°27' E 118°00'3 3.4
2016-May-04 10:34N 24°26' E 118°03'10 9.8
2016-May-04 09:33N 24°21' E 118°12'1 0.5
2016-May-04 08:33N 24°21' E 118°13'0 0.0
2016-May-04 07:24N 24°21' E 118°13'0 0.1
2016-May-04 06:33N 24°21' E 118°13'0 0.0
2016-May-04 05:33N 24°21' E 118°13'0 0.0
2016-May-04 04:33N 24°21' E 118°13'0 0.1
2016-May-04 03:33N 24°21' E 118°13'0 0.1
2016-May-04 02:33N 24°21' E 118°12'0 0.0
2016-May-04 01:27N 24°21' E 118°12'0 0.0
2016-May-04 00:33N 24°21' E 118°12'0 0.1
2016-May-03 23:30N 24°21' E 118°13'0 0.0
2016-May-03 22:27N 24°21' E 118°13'0 0.1
2016-May-03 21:33N 24°21' E 118°13'0 0.0
2016-May-03 20:33N 24°21' E 118°13'0 0.0
2016-May-03 19:33N 24°21' E 118°13'0 0.1
2016-May-03 18:30N 24°21' E 118°13'1 1.0
2016-May-03 17:34N 24°21' E 118°14'9 8.3
2016-May-03 16:32N 24°20' E 118°23'10 9.7
2016-May-03 15:32N 24°24' E 118°33'1010.0
2016-May-03 14:33N 24°31' E 118°40'10 9.6
2016-May-03 13:32N 24°39' E 118°46'9 8.8
2016-May-03 12:33N 24°48' E 118°47'3 1.7
2016-May-03 10:31N 24°49' E 118°43'0 0.0
2016-May-03 09:31N 24°49' E 118°43'0 0.0
2016-May-03 07:31N 24°49' E 118°43'0 0.0
2016-May-03 06:13N 24°49' E 118°43'0 0.0
2016-May-03 04:16N 24°49' E 118°43'0 0.0
2016-May-03 02:13N 24°49' E 118°43'1 1.0
2016-May-03 01:33N 24°49' E 118°44'7 6.3
2016-May-03 00:27N 24°43' E 118°48'1411.0
2016-May-02 23:13N 24°31' E 118°40'811.6
2016-May-02 22:32N 24°25' E 118°35'1111.3
2016-May-02 21:33N 24°17' E 118°27'1211.6
2016-May-02 20:32N 24°08' E 118°18'1311.8
2016-May-02 19:24N 23°60' E 118°06'1111.9
2016-May-02 18:29N 23°53' E 117°57'1211.4
2016-May-02 17:28N 23°46' E 117°47'1010.4
2016-May-02 16:32N 23°40' E 117°38'4510.8
2016-May-02 12:20N 23°18' E 116°55'7 9.6
2016-May-02 11:34N 23°18' E 116°47'5 4.4
2016-May-02 10:29N 23°21' E 116°43'0 0.0
2016-May-02 09:23N 23°21' E 116°43'0 0.0
2016-May-02 08:29N 23°21' E 116°43'0 0.0
2016-May-02 07:29N 23°21' E 116°43'0 0.0
2016-May-02 06:11N 23°21' E 116°43'0 0.0
2016-May-02 05:29N 23°21' E 116°43'0 0.0
2016-May-02 04:29N 23°21' E 116°43'0 0.0
2016-May-02 03:23N 23°21' E 116°43'0 0.0
2016-May-02 02:29N 23°21' E 116°43'0 0.0
2016-May-02 01:29N 23°21' E 116°43'0 0.0
2016-May-02 00:29N 23°21' E 116°43'0 0.0
2016-May-01 23:29N 23°21' E 116°43'0 0.0
2016-May-01 22:29N 23°21' E 116°43'0 0.1
2016-May-01 21:33N 23°21' E 116°43'5 5.4
2016-May-01 20:33N 23°17' E 116°48'3 3.1
2016-May-01 19:32N 23°16' E 116°51'0 0.0
2016-May-01 18:26N 23°16' E 116°51'0 0.0
2016-May-01 17:20N 23°16' E 116°51'0 0.0
2016-May-01 16:26N 23°16' E 116°51'0 0.1
2016-May-01 15:32N 23°16' E 116°51'0 0.0
2016-May-01 14:15N 23°16' E 116°51'0 0.0
2016-May-01 10:32N 23°16' E 116°51'1 0.9
2016-May-01 09:33N 23°16' E 116°52'46 9.2
2016-May-01 04:32N 23°39' E 117°35'1010.3
2016-May-01 03:33N 23°45' E 117°44'1510.6
2016-May-01 02:08N 23°54' E 117°57'1810.8
2016-May-01 00:30N 24°04' E 118°13'1010.4
2016-Apr-30 23:30N 24°12' E 118°21'2110.7
2016-Apr-30 21:33N 24°27' E 118°36'10 9.7
2016-Apr-30 20:33N 24°35' E 118°43'9 9.5
2016-Apr-30 19:33N 24°43' E 118°47'7 6.8
2016-Apr-30 18:33N 24°49' E 118°44'0 0.3
2016-Apr-30 17:32N 24°49' E 118°43'0 0.0
2016-Apr-30 16:26N 24°49' E 118°43'0 0.0
2016-Apr-30 15:29N 24°49' E 118°43'0 0.0
2016-Apr-30 13:20N 24°49' E 118°43'0 0.0
2016-Apr-30 11:29N 24°49' E 118°43'0 0.0
2016-Apr-30 08:26N 24°49' E 118°43'0 0.0
2016-Apr-30 07:20N 24°49' E 118°43'0 0.1
2016-Apr-30 06:33N 24°49' E 118°43'5 4.5
2016-Apr-30 05:33N 24°48' E 118°48'0 0.1
2016-Apr-30 04:11N 24°48' E 118°48'3 1.8
2016-Apr-30 02:30N 24°49' E 118°51'1010.6
2016-Apr-30 01:33N 24°52' E 119°02'1111.1
2016-Apr-30 00:32N 24°57' E 119°13'74 8.2
2016-Apr-29 15:29N 26°08' E 119°35'9 9.2
2016-Apr-29 14:31N 26°01' E 119°29'0 0.1
2016-Apr-29 11:17N 26°01' E 119°29'0 0.0
2016-Apr-29 09:05N 26°01' E 119°29'0 0.0
2016-Apr-29 06:22N 26°01' E 119°29'0 0.0
2016-Apr-29 05:21N 26°01' E 119°29'0 0.0
2016-Apr-29 04:27N 26°01' E 119°29'0 0.0
2016-Apr-29 03:33N 26°01' E 119°29'0 0.0
2016-Apr-29 01:29N 26°01' E 119°29'4 4.6
2016-Apr-29 00:33N 26°04' E 119°31'71 3.5
2016-Apr-28 04:26N 24°56' E 119°12'9 9.9
2016-Apr-28 03:31N 24°52' E 119°03'1010.4
2016-Apr-28 02:33N 24°48' E 118°52'8 8.3
2016-Apr-28 01:33N 24°49' E 118°43'0 0.1
2016-Apr-28 00:24N 24°49' E 118°43'0 0.0
2016-Apr-27 23:33N 24°49' E 118°43'0 0.0
2016-Apr-27 22:27N 24°49' E 118°43'0 0.0
2016-Apr-27 21:18N 24°49' E 118°43'0 0.0
2016-Apr-27 20:21N 24°49' E 118°43'0 0.0
2016-Apr-27 19:33N 24°49' E 118°43'0 0.0
2016-Apr-27 18:30N 24°49' E 118°43'0 0.0
2016-Apr-27 17:06N 24°49' E 118°43'0 0.0
2016-Apr-27 16:30N 24°49' E 118°43'0 0.0
2016-Apr-27 15:30N 24°49' E 118°43'0 0.0
2016-Apr-27 13:29N 24°49' E 118°43'1 0.8
2016-Apr-27 12:33N 24°49' E 118°44'4 3.9
2016-Apr-27 11:32N 24°48' E 118°48'0 0.0
2016-Apr-27 10:32N 24°48' E 118°48'0 0.0
2016-Apr-27 09:32N 24°48' E 118°48'0 0.0
2016-Apr-27 08:32N 24°48' E 118°48'0 0.1
2016-Apr-27 07:29N 24°48' E 118°48'0 0.0
2016-Apr-27 03:32N 24°48' E 118°48'0 0.1
2016-Apr-27 02:08N 24°48' E 118°48'0 0.0
2016-Apr-27 01:26N 24°48' E 118°48'0 0.0
2016-Apr-27 00:20N 24°48' E 118°48'0 0.0
2016-Apr-26 23:32N 24°48' E 118°48'0 0.0
2016-Apr-26 20:23N 24°48' E 118°48'0 0.0
2016-Apr-26 19:14N 24°48' E 118°48'0 0.0
2016-Apr-26 18:29N 24°48' E 118°48'0 0.1
2016-Apr-26 17:26N 24°48' E 118°48'0 0.1
2016-Apr-26 16:14N 24°48' E 118°48'3 3.8
2016-Apr-26 15:33N 24°48' E 118°51'1010.4
2016-Apr-26 14:33N 24°52' E 119°02'  
Track history (hours):
 
Tides and Currents Weather Stations Pressure Air Temp Water Temp Dewpoint Dewpoint Depression Visibility Wind Speed Wind Dir Waves Ship Positions

Bao An Cheng 69

Last reported at 2016-May-06 03:31 UTC. Time now 2016-May-07 00:28 UTC.
Position N 25°23' E 119°22'.

Length 121 m; draft 5.8 m.

Type: Cargo ship. MMSI: 412703090.

Date/timePositionNaut miles runAvg speedWind from/ knotsBaromVisibWave heightAir tempDewpointWater temp
2016-May-06 03:31N 25°23' E 119°22'8 7.6
2016-May-06 02:29N 25°16' E 119°26'2510.3
2016-May-06 00:04N 24°57' E 119°08'712.2
2016-May-05 23:30N 24°52' E 119°02'1111.4
2016-May-05 22:33N 24°48' E 118°51'7 7.4
2016-May-05 21:33N 24°49' E 118°43'0 0.0
2016-May-05 19:31N 24°49' E 118°43'0 0.0
2016-May-05 18:13N 24°49' E 118°43'0 0.0
2016-May-05 17:10N 24°49' E 118°43'0 0.0
2016-May-05 16:28N 24°49' E 118°43'0 0.0
2016-May-05 12:13N 24°49' E 118°43'4 5.9
2016-May-05 11:30N 24°47' E 118°47'0 0.1
2016-May-05 08:10N 24°47' E 118°48'0 0.1
2016-May-05 07:22N 24°47' E 118°48'5 6.6
2016-May-05 06:33N 24°42' E 118°47'2210.9
2016-May-05 04:33N 24°25' E 118°32'1110.2
2016-May-05 03:30N 24°20' E 118°21'910.0
2016-May-05 02:33N 24°21' E 118°11'8 8.5
2016-May-05 01:33N 24°26' E 118°03'3 3.1
2016-May-05 00:31N 24°27' E 118°00'0 0.0
2016-May-04 23:28N 24°27' E 118°00'0 0.0
2016-May-04 22:28N 24°27' E 118°00'0 0.0
2016-May-04 21:31N 24°27' E 118°00'0 0.0
2016-May-04 20:33N 24°27' E 118°00'0 0.0
2016-May-04 19:33N 24°27' E 118°00'0 0.0
2016-May-04 18:33N 24°27' E 118°00'0 0.0
2016-May-04 17:30N 24°27' E 118°00'0 0.0
2016-May-04 16:30N 24°27' E 118°00'0 0.0
2016-May-04 15:33N 24°27' E 118°00'0 0.0
2016-May-04 14:33N 24°27' E 118°00'0 0.0
2016-May-04 13:30N 24°27' E 118°00'0 0.0
2016-May-04 11:21N 24°27' E 118°00'3 3.4
2016-May-04 10:34N 24°26' E 118°03'10 9.8
2016-May-04 09:33N 24°21' E 118°12'1 0.5
2016-May-04 08:33N 24°21' E 118°13'0 0.0
2016-May-04 07:24N 24°21' E 118°13'0 0.1
2016-May-04 06:33N 24°21' E 118°13'0 0.0
2016-May-04 05:33N 24°21' E 118°13'0 0.0
2016-May-04 04:33N 24°21' E 118°13'0 0.1
2016-May-04 03:33N 24°21' E 118°13'0 0.1
2016-May-04 02:33N 24°21' E 118°12'0 0.0
2016-May-04 01:27N 24°21' E 118°12'0 0.0
2016-May-04 00:33N 24°21' E 118°12'0 0.1
2016-May-03 23:30N 24°21' E 118°13'0 0.0
2016-May-03 22:27N 24°21' E 118°13'0 0.1
2016-May-03 21:33N 24°21' E 118°13'0 0.0
2016-May-03 20:33N 24°21' E 118°13'0 0.0
2016-May-03 19:33N 24°21' E 118°13'0 0.1
2016-May-03 18:30N 24°21' E 118°13'1 1.0
2016-May-03 17:34N 24°21' E 118°14'9 8.3
2016-May-03 16:32N 24°20' E 118°23'10 9.7
2016-May-03 15:32N 24°24' E 118°33'1010.0
2016-May-03 14:33N 24°31' E 118°40'10 9.6
2016-May-03 13:32N 24°39' E 118°46'9 8.8
2016-May-03 12:33N 24°48' E 118°47'3 1.7
2016-May-03 10:31N 24°49' E 118°43'0 0.0
2016-May-03 09:31N 24°49' E 118°43'0 0.0
2016-May-03 07:31N 24°49' E 118°43'0 0.0
2016-May-03 06:13N 24°49' E 118°43'0 0.0
2016-May-03 04:16N 24°49' E 118°43'0 0.0
2016-May-03 02:13N 24°49' E 118°43'1 1.0
2016-May-03 01:33N 24°49' E 118°44'7 6.3
2016-May-03 00:27N 24°43' E 118°48'1411.0
2016-May-02 23:13N 24°31' E 118°40'811.6
2016-May-02 22:32N 24°25' E 118°35'1111.3
2016-May-02 21:33N 24°17' E 118°27'1211.6
2016-May-02 20:32N 24°08' E 118°18'1311.8
2016-May-02 19:24N 23°60' E 118°06'1111.9
2016-May-02 18:29N 23°53' E 117°57'1211.4
2016-May-02 17:28N 23°46' E 117°47'1010.4
2016-May-02 16:32N 23°40' E 117°38'4510.8
2016-May-02 12:20N 23°18' E 116°55'7 9.6
2016-May-02 11:34N 23°18' E 116°47'5 4.4
2016-May-02 10:29N 23°21' E 116°43'0 0.0
2016-May-02 09:23N 23°21' E 116°43'0 0.0
2016-May-02 08:29N 23°21' E 116°43'0 0.0
2016-May-02 07:29N 23°21' E 116°43'0 0.0
2016-May-02 06:11N 23°21' E 116°43'0 0.0
2016-May-02 05:29N 23°21' E 116°43'0 0.0
2016-May-02 04:29N 23°21' E 116°43'0 0.0
2016-May-02 03:23N 23°21' E 116°43'0 0.0
2016-May-02 02:29N 23°21' E 116°43'0 0.0
2016-May-02 01:29N 23°21' E 116°43'0 0.0
2016-May-02 00:29N 23°21' E 116°43'0 0.0
2016-May-01 23:29N 23°21' E 116°43'0 0.0
2016-May-01 22:29N 23°21' E 116°43'0 0.1
2016-May-01 21:33N 23°21' E 116°43'5 5.4
2016-May-01 20:33N 23°17' E 116°48'3 3.1
2016-May-01 19:32N 23°16' E 116°51'0 0.0
2016-May-01 18:26N 23°16' E 116°51'0 0.0
2016-May-01 17:20N 23°16' E 116°51'0 0.0
2016-May-01 16:26N 23°16' E 116°51'0 0.1
2016-May-01 15:32N 23°16' E 116°51'0 0.0
2016-May-01 14:15N 23°16' E 116°51'0 0.0
2016-May-01 10:32N 23°16' E 116°51'1 0.9
2016-May-01 09:33N 23°16' E 116°52'46 9.2
2016-May-01 04:32N 23°39' E 117°35'1010.3
2016-May-01 03:33N 23°45' E 117°44'1510.6
2016-May-01 02:08N 23°54' E 117°57'1810.8
2016-May-01 00:30N 24°04' E 118°13'1010.4
2016-Apr-30 23:30N 24°12' E 118°21'2110.7
2016-Apr-30 21:33N 24°27' E 118°36'10 9.7
2016-Apr-30 20:33N 24°35' E 118°43'9 9.5
2016-Apr-30 19:33N 24°43' E 118°47'7 6.8
2016-Apr-30 18:33N 24°49' E 118°44'0 0.3
2016-Apr-30 17:32N 24°49' E 118°43'0 0.0
2016-Apr-30 16:26N 24°49' E 118°43'0 0.0
2016-Apr-30 15:29N 24°49' E 118°43'0 0.0
2016-Apr-30 13:20N 24°49' E 118°43'0 0.0
2016-Apr-30 11:29N 24°49' E 118°43'0 0.0
2016-Apr-30 08:26N 24°49' E 118°43'0 0.0
2016-Apr-30 07:20N 24°49' E 118°43'0 0.1
2016-Apr-30 06:33N 24°49' E 118°43'5 4.5
2016-Apr-30 05:33N 24°48' E 118°48'0 0.1
2016-Apr-30 04:11N 24°48' E 118°48'3 1.8
2016-Apr-30 02:30N 24°49' E 118°51'1010.6
2016-Apr-30 01:33N 24°52' E 119°02'1111.1
2016-Apr-30 00:32N 24°57' E 119°13'74 8.2
2016-Apr-29 15:29N 26°08' E 119°35'9 9.2
2016-Apr-29 14:31N 26°01' E 119°29'0 0.1
2016-Apr-29 11:17N 26°01' E 119°29'0 0.0
2016-Apr-29 09:05N 26°01' E 119°29'0 0.0
2016-Apr-29 06:22N 26°01' E 119°29'0 0.0
2016-Apr-29 05:21N 26°01' E 119°29'0 0.0
2016-Apr-29 04:27N 26°01' E 119°29'0 0.0
2016-Apr-29 03:33N 26°01' E 119°29'0 0.0
2016-Apr-29 01:29N 26°01' E 119°29'4 4.6
2016-Apr-29 00:33N 26°04' E 119°31'71 3.5
2016-Apr-28 04:26N 24°56' E 119°12'9 9.9
2016-Apr-28 03:31N 24°52' E 119°03'1010.4
2016-Apr-28 02:33N 24°48' E 118°52'8 8.3
2016-Apr-28 01:33N 24°49' E 118°43'0 0.1
2016-Apr-28 00:24N 24°49' E 118°43'0 0.0
2016-Apr-27 23:33N 24°49' E 118°43'0 0.0
2016-Apr-27 22:27N 24°49' E 118°43'0 0.0
2016-Apr-27 21:18N 24°49' E 118°43'0 0.0
2016-Apr-27 20:21N 24°49' E 118°43'0 0.0
2016-Apr-27 19:33N 24°49' E 118°43'0 0.0
2016-Apr-27 18:30N 24°49' E 118°43'0 0.0
2016-Apr-27 17:06N 24°49' E 118°43'0 0.0
2016-Apr-27 16:30N 24°49' E 118°43'0 0.0
2016-Apr-27 15:30N 24°49' E 118°43'0 0.0
2016-Apr-27 13:29N 24°49' E 118°43'1 0.8
2016-Apr-27 12:33N 24°49' E 118°44'4 3.9
2016-Apr-27 11:32N 24°48' E 118°48'0 0.0
2016-Apr-27 10:32N 24°48' E 118°48'0 0.0
2016-Apr-27 09:32N 24°48' E 118°48'0 0.0
2016-Apr-27 08:32N 24°48' E 118°48'0 0.1
2016-Apr-27 07:29N 24°48' E 118°48'0 0.0
2016-Apr-27 03:32N 24°48' E 118°48'0 0.1
2016-Apr-27 02:08N 24°48' E 118°48'0 0.0
2016-Apr-27 01:26N 24°48' E 118°48'0 0.0
2016-Apr-27 00:20N 24°48' E 118°48'0 0.0
2016-Apr-26 23:32N 24°48' E 118°48'0 0.0
2016-Apr-26 20:23N 24°48' E 118°48'0 0.0
2016-Apr-26 19:14N 24°48' E 118°48'0 0.0
2016-Apr-26 18:29N 24°48' E 118°48'0 0.1
2016-Apr-26 17:26N 24°48' E 118°48'0 0.1
2016-Apr-26 16:14N 24°48' E 118°48'3 3.8
2016-Apr-26 15:33N 24°48' E 118°51'1010.4
2016-Apr-26 14:33N 24°52' E 119°02'  

Dump ship's entire track history